METAR AND TAF INFORMATION
METAR FOR EFHK
ADDS - METARS form results

(1518 UTC 02 June 2020)
Data provider http://aviationweather.gov/metar/data/
 
METAR text: EFHK 021450Z 11010KT CAVOK 16/00 Q1018 NOSIG
Conditions at: EFHK (HELSINKI/VANTAA , FI) observed 1450 UTC 02 June 2020
Temperature: 16.0°C (61°F)
Dewpoint: 0.0°C (32°F) [RH = 34%]
Pressure (altimeter): 30.06 inches Hg (1018.0 mb)
Winds: from the ESE (110 degrees) at 12 MPH (10 knots; 5.1 m/s)
Visibility: 6 or more miles (10+ km)
Ceiling: ceiling and visibility are OK
Clouds: unknown
Weather: no significant weather observed at this time

METAR text: EFHK 021420Z 13009KT 090V180 CAVOK 16/01 Q1019 NOSIG
Conditions at: EFHK (HELSINKI/VANTAA , FI) observed 1420 UTC 02 June 2020
Temperature: 16.0°C (61°F)
Dewpoint: 1.0°C (34°F) [RH = 36%]
Pressure (altimeter): 30.09 inches Hg (1019.0 mb)
Winds: from the SE (130 degrees) at 10 MPH (9 knots; 4.6 m/s)
Visibility: 6 or more miles (10+ km)
Ceiling: ceiling and visibility are OK
Clouds: unknown
Weather: no significant weather observed at this time

Forecast for: EFHK (HELSINKI/VANTAA , FI)
Text: TAF EFHK 021435Z 0215/0315 12007KT CAVOK
Forecast period: 1500 UTC 02 June 2020 to 1500 UTC 03 June 2020
Forecast type: FROM: standard forecast or significant change
Winds: from the ESE (120 degrees) at 8 MPH (7 knots; 3.6 m/s)
Visibility: 6 or more miles 10+ km)
Ceiling: unknown
Clouds: missing
Weather: NSW  (no significant weather)

 AIRPORT MAP

 RUNWAY INFORMATION
Runway 04L Runway length 10039 ft Runway width 197 ft
Runway elevation 133 ft Runway displaced threshold 0 ft Runway heading 48
Runway 22R Runway length 10039 ft Runway width 197 ft
Runway elevation 178 ft Runway displaced threshold 196 ft Runway heading 228
Runway 04R Runway length 11286 ft Runway width 197 ft
Runway elevation 150 ft Runway displaced threshold 787 ft Runway heading 48
Runway 22L Runway length 11286 ft Runway width 197 ft
Runway elevation 147 ft Runway displaced threshold 0 ft Runway heading 228
Runway 15 Runway length 9518 ft Runway width 197 ft
Runway elevation 162 ft Runway displaced threshold 0 ft Runway heading 154
Runway 33 Runway length 9518 ft Runway width 197 ft
Runway elevation 146 ft Runway displaced threshold 0 ft Runway heading 334

 AIRPORT FREQUENCIES
Type APP Name APP Frequency 119.1 MHZ
Type APP Name Frequency 129.85 MHZ
Type ATIS Name HEL VOR Frequency 114.2 MHZ
Type ATIS Name Frequency 135.075 MHZ
Type DEL Name Frequency 118.125 MHZ
Type GND Name GND Frequency 121.8 MHZ
Type PMSV Name PMSV METRO Frequency 125.1 MHZ
Type RMP Name RMP Frequency 121.65 MHZ
Type TWR Name 22L/04R an Frequency 118.6 MHZ
Type TWR Name 22R/04L Frequency 118.85 MHZ

 AIRPORT NEAR NAVIGATION AIDS
Type NDB Name Espoo Frequency 381 KHZ
Type VOR-DME Name Helsinki Frequency 114200 KHZ
Type NDB Name Korso Frequency 322 KHZ